Time;durP1;ratioP1;P1;durP2;ratioP2;P2;SDS_P1;SDS_P2;PMS_P1;PMS_P2;Temp;Humidity;BMP_temperature;BMP_pressure;BME280_temperature;BME280_humidity;BME280_pressure;Samples;Min_cycle;Max_cycle;Signal;HPM_P1;HPM_P2
2020/05/06 00:02:16;;;;;;;5.2;2.2;;;;;;;;;;;;;
2020/05/06 00:04:41;;;;;;;4.9;2.4;;;;;;;;;;;;;
2020/05/06 00:07:06;;;;;;;4;2;;;;;;;;;;;;;
2020/05/06 00:09:31;;;;;;;5.7;2.2;;;;;;;;;;;;;
2020/05/06 00:11:56;;;;;;;3.6;2;;;;;;;;;;;;;
2020/05/06 00:14:21;;;;;;;3.1;1.9;;;;;;;;;;;;;
2020/05/06 00:16:46;;;;;;;4;2.2;;;;;;;;;;;;;
2020/05/06 00:19:11;;;;;;;3.7;2;;;;;;;;;;;;;
2020/05/06 00:21:36;;;;;;;4.4;2.2;;;;;;;;;;;;;
2020/05/06 00:24:01;;;;;;;3.9;2.2;;;;;;;;;;;;;
2020/05/06 00:26:26;;;;;;;5.8;1.9;;;;;;;;;;;;;
2020/05/06 00:28:51;;;;;;;4.5;2.1;;;;;;;;;;;;;
2020/05/06 00:31:16;;;;;;;3.5;2;;;;;;;;;;;;;
2020/05/06 00:33:42;;;;;;;4.6;1.9;;;;;;;;;;;;;
2020/05/06 00:36:07;;;;;;;6.1;2.4;;;;;;;;;;;;;
2020/05/06 00:38:32;;;;;;;4.4;2.2;;;;;;;;;;;;;
2020/05/06 00:40:57;;;;;;;3.2;1.9;;;;;;;;;;;;;
2020/05/06 00:43:23;;;;;;;4.5;2;;;;;;;;;;;;;
2020/05/06 00:45:48;;;;;;;5.1;2.4;;;;;;;;;;;;;
2020/05/06 00:48:13;;;;;;;6.2;2.1;;;;;;;;;;;;;
2020/05/06 00:50:38;;;;;;;4;2.2;;;;;;;;;;;;;
2020/05/06 00:53:03;;;;;;;4.3;2.3;;;;;;;;;;;;;
2020/05/06 00:55:28;;;;;;;5.9;2.3;;;;;;;;;;;;;
2020/05/06 00:57:54;;;;;;;3.6;2.1;;;;;;;;;;;;;
2020/05/06 01:00:19;;;;;;;4.5;2.1;;;;;;;;;;;;;
2020/05/06 01:02:44;;;;;;;4.9;2.3;;;;;;;;;;;;;
2020/05/06 01:05:09;;;;;;;3.8;2.1;;;;;;;;;;;;;
2020/05/06 01:07:35;;;;;;;5.4;2;;;;;;;;;;;;;
2020/05/06 01:10:00;;;;;;;4.6;2.3;;;;;;;;;;;;;
2020/05/06 01:12:25;;;;;;;3.2;2;;;;;;;;;;;;;
2020/05/06 01:14:50;;;;;;;5.8;2.2;;;;;;;;;;;;;
2020/05/06 01:17:15;;;;;;;4.5;2.1;;;;;;;;;;;;;
2020/05/06 01:19:41;;;;;;;4.8;2.1;;;;;;;;;;;;;
2020/05/06 01:22:06;;;;;;;3.4;2;;;;;;;;;;;;;
2020/05/06 01:24:32;;;;;;;4.7;2.3;;;;;;;;;;;;;
2020/05/06 01:26:56;;;;;;;4.5;2.1;;;;;;;;;;;;;
2020/05/06 01:29:22;;;;;;;4.4;2.2;;;;;;;;;;;;;
2020/05/06 01:31:47;;;;;;;6.3;2.2;;;;;;;;;;;;;
2020/05/06 01:34:12;;;;;;;4.2;2.1;;;;;;;;;;;;;
2020/05/06 01:36:38;;;;;;;3.6;2.1;;;;;;;;;;;;;
2020/05/06 01:39:04;;;;;;;4.2;2.2;;;;;;;;;;;;;
2020/05/06 01:41:28;;;;;;;4.5;2.5;;;;;;;;;;;;;
2020/05/06 01:43:54;;;;;;;3.6;2.2;;;;;;;;;;;;;
2020/05/06 01:46:19;;;;;;;6.4;2.2;;;;;;;;;;;;;
2020/05/06 01:48:44;;;;;;;3.8;2.2;;;;;;;;;;;;;
2020/05/06 01:51:09;;;;;;;5.6;2.3;;;;;;;;;;;;;
2020/05/06 01:53:41;;;;;;;3.8;2.2;;;;;;;;;;;;;
2020/05/06 01:56:08;;;;;;;5.9;2.7;;;;;;;;;;;;;
2020/05/06 01:59:06;;;;;;;4.4;2.3;;;;;;;;;;;;;
2020/05/06 02:04:03;;;;;;;4.1;2.3;;;;;;;;;;;;;
2020/05/06 02:08:09;;;;;;;5;2.6;;;;;;;;;;;;;
2020/05/06 02:10:30;;;;;;;4.8;2.5;;;;;;;;;;;;;
2020/05/06 02:15:24;;;;;;;4.6;2.4;;;;;;;;;;;;;
2020/05/06 02:17:46;;;;;;;4.5;2.5;;;;;;;;;;;;;
2020/05/06 02:22:36;;;;;;;3.9;2.6;;;;;;;;;;;;;
2020/05/06 02:25:32;;;;;;;5.4;2.6;;;;;;;6.28;68.1416;962.9153;;;;
2020/05/06 02:27:57;;;;;;;4;2.3;;;;;;;6.18;68.39941;962.9186;;;;
2020/05/06 02:30:22;;;;;;;3.1;2.3;;;;;;;6.26;67.99023;962.9568;;;;
2020/05/06 02:32:47;;;;;;;3.7;2.3;;;;;;;6.27;68.08301;962.9286;;;;
2020/05/06 02:35:12;;;;;;;4.5;2.7;;;;;;;6.29;69.07715;962.9587;;;;
2020/05/06 02:37:37;;;;;;;3.8;2.4;;;;;;;6.38;67.36035;962.9383;;;;
2020/05/06 02:40:02;;;;;;;4.6;2.7;;;;;;;6.24;67.55469;962.9916;;;;
2020/05/06 02:43:38;;;;;;;4.9;2.5;;;;;;;6.21;69.32617;962.9425;;;;
2020/05/06 02:45:07;;;;;;;7;2.5;;;;;;;6.12;68.50293;962.9598;;;;
2020/05/06 02:47:19;;;;;;;4.3;2.6;;;;;;;6.13;68.2998;962.9221;;;;
2020/05/06 02:49:45;;;;;;;3.5;2.5;;;;;;;6.18;69.58594;962.9447;;;;
2020/05/06 02:52:10;;;;;;;4.4;2.6;;;;;;;6.13;70.22559;962.9299;;;;
2020/05/06 02:54:36;;;;;;;4.6;2.7;;;;;;;6.07;69.27051;962.9196;;;;
2020/05/06 02:57:01;;;;;;;3.9;2.7;;;;;;;5.9;69.24316;962.9489;;;;
2020/05/06 02:59:30;;;;;;;5.3;2.9;;;;;;;5.97;70.53027;962.9447;;;;
2020/05/06 03:01:55;;;;;;;4.5;2.7;;;;;;;6.05;69.97363;962.9489;;;;
2020/05/06 03:04:20;;;;;;;3.7;2.6;;;;;;;5.91;68.98145;963.008;;;;
2020/05/06 03:06:45;;;;;;;4.2;2.8;;;;;;;5.92;70.07715;962.9785;;;;
2020/05/06 03:09:10;;;;;;;4.1;2.8;;;;;;;5.88;71.07324;963.0214;;;;
2020/05/06 03:11:35;;;;;;;4.3;2.5;;;;;;;5.88;69.10156;962.9979;;;;
2020/05/06 03:14:01;;;;;;;7.1;3.1;;;;;;;5.83;69.12988;963.0569;;;;
2020/05/06 03:16:26;;;;;;;4.9;2.9;;;;;;;5.75;71.15332;963.0475;;;;
2020/05/06 03:18:51;;;;;;;4.3;2.8;;;;;;;5.87;70.84375;963.0463;;;;
2020/05/06 03:21:16;;;;;;;4.8;2.9;;;;;;;5.99;68.65527;963.0574;;;;
2020/05/06 03:23:41;;;;;;;4.5;2.8;;;;;;;6;68.75781;963.0397;;;;
2020/05/06 03:26:06;;;;;;;4.8;3;;;;;;;5.9;70.93945;963.095;;;;
2020/05/06 03:28:31;;;;;;;4;2.7;;;;;;;5.96;69.20703;963.048;;;;
2020/05/06 03:30:56;;;;;;;4.7;2.7;;;;;;;6;70.47754;963.0851;;;;
2020/05/06 03:33:24;;;;;;;5.9;2.8;;;;;;;5.88;69.75195;963.0709;;;;
2020/05/06 03:35:49;;;;;;;4.6;3;;;;;;;5.92;70.08789;963.1312;;;;
2020/05/06 03:38:14;;;;;;;7.3;3.2;;;;;;;5.85;70.81641;963.1213;;;;
2020/05/06 03:40:39;;;;;;;4.5;2.9;;;;;;;5.9;70.46094;963.1511;;;;
2020/05/06 03:43:06;;;;;;;5;2.7;;;;;;;5.87;72.0957;963.1948;;;;
2020/05/06 03:45:31;;;;;;;4.3;3;;;;;;;5.67;71.33301;963.212;;;;
2020/05/06 03:47:57;;;;;;;5;2.5;;;;;;;5.71;71.59082;963.2219;;;;
2020/05/06 03:50:22;;;;;;;4.8;3;;;;;;;5.71;71.2832;963.1528;;;;
2020/05/06 03:52:49;;;;;;;4.5;2.8;;;;;;;5.78;71.36426;963.1927;;;;
2020/05/06 03:55:14;;;;;;;4.5;2.9;;;;;;;5.92;70.74902;963.2442;;;;
2020/05/06 03:57:40;;;;;;;3.7;2.8;;;;;;;5.7;71.11035;963.2594;;;;
2020/05/06 04:02:27;;;;;;;5.9;3;;;;;;;5.76;70.08496;963.296;;;;
2020/05/06 04:04:52;;;;;;;5.7;2.7;;;;;;;5.86;69.77051;963.2678;;;;
2020/05/06 04:07:17;;;;;;;5.2;3.2;;;;;;;5.86;70.2832;963.3228;;;;
2020/05/06 04:09:42;;;;;;;6.8;2.9;;;;;;;5.84;70.62305;963.3102;;;;
2020/05/06 04:12:08;;;;;;;5.1;3.1;;;;;;;5.87;69.78516;963.3317;;;;
2020/05/06 04:14:33;;;;;;;4.9;3.1;;;;;;;5.77;71.16699;963.3141;;;;
2020/05/06 04:16:58;;;;;;;3.6;2.9;;;;;;;5.87;70.36523;963.3764;;;;
2020/05/06 04:19:23;;;;;;;5.2;3;;;;;;;5.87;70.40918;963.338;;;;
2020/05/06 04:21:48;;;;;;;4.5;3.2;;;;;;;5.98;71.7041;963.3142;;;;
2020/05/06 04:24:13;;;;;;;6.1;3.3;;;;;;;5.97;70.58691;963.3716;;;;
2020/05/06 04:26:38;;;;;;;8.2;3.5;;;;;;;5.95;71.03809;963.4347;;;;
2020/05/06 04:29:04;;;;;;;4.7;3.3;;;;;;;5.91;71.97656;963.44;;;;
2020/05/06 04:31:29;;;;;;;6.5;3.6;;;;;;;5.91;72;963.5209;;;;
2020/05/06 04:33:55;;;;;;;5.8;3.6;;;;;;;6;70.8877;963.5226;;;;
2020/05/06 04:36:20;;;;;;;7.6;3.5;;;;;;;6;71.29688;963.5705;;;;
2020/05/06 04:38:45;;;;;;;5.5;3;;;;;;;6.03;71.98535;963.5966;;;;
2020/05/06 04:41:10;;;;;;;5.4;3.6;;;;;;;6.1;70.02832;963.6518;;;;
2020/05/06 04:43:35;;;;;;;6.4;4;;;;;;;6.21;70.78418;963.6512;;;;
2020/05/06 04:46:00;;;;;;;7.8;4.3;;;;;;;6.04;70.75781;963.6857;;;;
2020/05/06 04:48:25;;;;;;;5;3.4;;;;;;;6.21;71.96973;963.6852;;;;
2020/05/06 04:50:51;;;;;;;7.5;3.6;;;;;;;6.14;71.25098;963.6953;;;;
2020/05/06 04:53:16;;;;;;;6.4;3.5;;;;;;;6.12;71.05566;963.7333;;;;
2020/05/06 04:55:41;;;;;;;5.5;3.6;;;;;;;6.2;69.81445;963.7609;;;;
2020/05/06 04:58:07;;;;;;;7.6;3.6;;;;;;;5.97;70.10742;963.7914;;;;
2020/05/06 05:00:32;;;;;;;6.8;3.4;;;;;;;5.92;70.12207;963.8492;;;;
2020/05/06 05:02:58;;;;;;;6.9;3.3;;;;;;;6.17;68.99121;963.8408;;;;
2020/05/06 05:05:23;;;;;;;4.9;3;;;;;;;6.21;69.44043;963.8997;;;;
2020/05/06 05:07:49;;;;;;;6.5;3.6;;;;;;;6.15;68.88477;963.873;;;;
2020/05/06 05:10:14;;;;;;;6.3;3.5;;;;;;;6.23;69.11426;963.8733;;;;
2020/05/06 05:12:41;;;;;;;8.9;4;;;;;;;6.34;69.24512;963.8922;;;;
2020/05/06 05:15:06;;;;;;;8.7;4;;;;;;;6.2;69.13281;963.9254;;;;
2020/05/06 05:17:32;;;;;;;5.8;3.8;;;;;;;6.33;68.15039;963.8976;;;;
2020/05/06 05:19:57;;;;;;;8.6;4;;;;;;;6.32;69.8584;963.9814;;;;
2020/05/06 05:22:23;;;;;;;6.4;3.6;;;;;;;6.29;69.8291;963.9835;;;;
2020/05/06 05:24:48;;;;;;;9.2;4.9;;;;;;;6.18;69.67676;964.0143;;;;
2020/05/06 05:27:15;;;;;;;7.8;3.5;;;;;;;6.28;68.54004;964.0515;;;;
2020/05/06 05:29:40;;;;;;;7;3.7;;;;;;;6.38;69.52637;964.0689;;;;
2020/05/06 05:32:05;;;;;;;6.7;4.4;;;;;;;6.35;67.99316;964.1323;;;;
2020/05/06 05:34:31;;;;;;;6.3;4;;;;;;;6.38;68.94531;964.133;;;;
2020/05/06 05:36:56;;;;;;;8.5;4.1;;;;;;;6.5;67.61719;964.103;;;;
2020/05/06 05:39:22;;;;;;;7.9;4;;;;;;;6.66;66.79883;964.1403;;;;
2020/05/06 05:41:47;;;;;;;10.2;4.3;;;;;;;6.63;66.00781;964.0953;;;;
2020/05/06 05:44:13;;;;;;;6.1;4;;;;;;;6.75;68.24023;964.1545;;;;
2020/05/06 05:46:49;;;;;;;7.7;3.6;;;;;;;6.76;67.8291;964.15;;;;
2020/05/06 05:49:04;;;;;;;9.1;3.8;;;;;;;7.01;66.40918;964.1969;;;;
2020/05/06 05:51:33;;;;;;;6.3;4.4;;;;;;;7.11;64.73438;964.2129;;;;
2020/05/06 05:54:01;;;;;;;8.2;3.4;;;;;;;6.95;65.70508;964.2043;;;;
2020/05/06 05:56:20;;;;;;;7.7;4.4;;;;;;;7.04;65.39746;964.2701;;;;
2020/05/06 05:58:44;;;;;;;8.8;3.4;;;;;;;7.28;64.31543;964.2458;;;;
2020/05/06 06:01:12;;;;;;;7.6;3.3;;;;;;;7.04;64.94043;964.2782;;;;
2020/05/06 06:03:35;;;;;;;8.7;4.2;;;;;;;7.36;64.03027;964.3153;;;;
2020/05/06 06:06:01;;;;;;;5;2.6;;;;;;;6.98;63.35742;964.2866;;;;
2020/05/06 06:08:26;;;;;;;6.8;3;;;;;;;6.89;64.2334;964.3126;;;;
2020/05/06 06:10:51;;;;;;;6.7;3.3;;;;;;;7.12;64.74707;964.3686;;;;
2020/05/06 06:13:16;;;;;;;5.6;2.7;;;;;;;7.12;64.54199;964.4194;;;;
2020/05/06 06:15:41;;;;;;;5.1;2.7;;;;;;;7.23;64.33008;964.425;;;;
2020/05/06 06:18:06;;;;;;;6.7;2.9;;;;;;;7.32;65.0752;964.4506;;;;
2020/05/06 06:20:31;;;;;;;3.5;2.3;;;;;;;7.06;62.35352;964.5086;;;;
2020/05/06 06:22:56;;;;;;;5.7;2.7;;;;;;;7.15;66.22461;964.4692;;;;
2020/05/06 06:25:21;;;;;;;4.5;2.6;;;;;;;7.05;65.57129;964.4861;;;;
2020/05/06 06:27:46;;;;;;;4.7;2.3;;;;;;;7.11;66.49316;964.4487;;;;
2020/05/06 06:30:12;;;;;;;5.4;2.4;;;;;;;7.23;64.96973;964.5443;;;;
2020/05/06 06:32:50;;;;;;;3.2;2.3;;;;;;;7.3;65.74512;964.4702;;;;
2020/05/06 06:35:06;;;;;;;4.4;2.4;;;;;;;7.24;64.7666;964.5442;;;;
2020/05/06 06:37:30;;;;;;;4.1;2.7;;;;;;;7.44;65.82422;964.5712;;;;
2020/05/06 06:39:55;;;;;;;5;2.4;;;;;;;7.61;65.48438;964.5901;;;;
2020/05/06 06:42:20;;;;;;;4.3;2.4;;;;;;;7.72;65.83301;964.5988;;;;
2020/05/06 06:44:47;;;;;;;9.7;2.6;;;;;;;7.81;64.57715;964.5953;;;;
2020/05/06 06:47:13;;;;;;;3.2;2.3;;;;;;;7.74;63.12695;964.5999;;;;
2020/05/06 06:49:39;;;;;;;3.9;2.6;;;;;;;7.84;61.96387;964.616;;;;
2020/05/06 06:52:04;;;;;;;5.6;2.8;;;;;;;7.97;64.08789;964.6386;;;;
2020/05/06 06:54:39;;;;;;;3.7;2.3;;;;;;;8.25;61.96484;964.6593;;;;
2020/05/06 06:56:55;;;;;;;4.3;2.2;;;;;;;8.18;63.24707;964.6121;;;;
2020/05/06 06:59:21;;;;;;;4;2.3;;;;;;;8.36;62.33496;964.6406;;;;
2020/05/06 07:01:46;;;;;;;4.4;2.2;;;;;;;8.45;60.95215;964.6611;;;;
2020/05/06 07:04:11;;;;;;;3.2;2.2;;;;;;;8.55;63.62402;964.6889;;;;
2020/05/06 07:06:36;;;;;;;3.3;2.2;;;;;;;8.75;61.18945;964.6594;;;;
2020/05/06 07:09:03;;;;;;;4.3;2.2;;;;;;;8.94;59.29004;964.6251;;;;
2020/05/06 07:11:27;;;;;;;4;2.2;;;;;;;8.81;60.02832;964.6492;;;;
2020/05/06 07:13:54;;;;;;;2.8;1.6;;;;;;;8.93;57.34863;964.6775;;;;
2020/05/06 07:16:19;;;;;;;4.8;2;;;;;;;8.9;57.51758;964.644;;;;
2020/05/06 07:18:45;;;;;;;4.5;2;;;;;;;8.82;58.55078;964.7413;;;;
2020/05/06 07:21:10;;;;;;;3.2;1.9;;;;;;;8.65;60.6123;964.6754;;;;
2020/05/06 07:23:36;;;;;;;3.3;2;;;;;;;8.75;59.43555;964.6716;;;;
2020/05/06 07:26:01;;;;;;;4.9;1.9;;;;;;;8.8;59.72949;964.6523;;;;
2020/05/06 07:28:28;;;;;;;3.2;1.6;;;;;;;8.91;59.79004;964.6355;;;;
2020/05/06 07:30:53;;;;;;;2.5;1.7;;;;;;;8.93;58.02637;964.6158;;;;
2020/05/06 07:33:19;;;;;;;3.1;1.6;;;;;;;9.02;57.79883;964.6433;;;;
2020/05/06 07:35:44;;;;;;;4.1;1.7;;;;;;;9.02;58.1875;964.6025;;;;
2020/05/06 07:38:10;;;;;;;2.8;1.5;;;;;;;9.01;57.98145;964.6716;;;;
2020/05/06 07:40:35;;;;;;;3.5;1.9;;;;;;;9.06;57.61914;964.6599;;;;
2020/05/06 07:43:02;;;;;;;3.1;1.5;;;;;;;8.85;56.3418;964.6277;;;;
2020/05/06 07:45:27;;;;;;;3.9;1.5;;;;;;;9.15;57.49512;964.6417;;;;
2020/05/06 07:47:53;;;;;;;2.6;1.4;;;;;;;9.25;56.49805;964.685;;;;
2020/05/06 07:50:19;;;;;;;2.6;1.4;;;;;;;9.13;55.25391;964.6412;;;;
2020/05/06 07:52:45;;;;;;;2.6;1.7;;;;;;;9.23;57.62012;964.685;;;;
2020/05/06 07:55:10;;;;;;;3.6;1.6;;;;;;;9.33;57.59863;964.593;;;;
2020/05/06 07:57:37;;;;;;;2.5;1.4;;;;;;;9.43;55.8916;964.6542;;;;
2020/05/06 08:00:02;;;;;;;1.7;1.2;;;;;;;9.3;57.61816;964.6592;;;;
2020/05/06 08:02:28;;;;;;;2.2;1.2;;;;;;;9.5;53.98242;964.6311;;;;
2020/05/06 08:04:53;;;;;;;2.5;1.4;;;;;;;9.6;52.22656;964.6454;;;;
2020/05/06 08:07:19;;;;;;;1.6;0.9;;;;;;;9.66;50.52148;964.7074;;;;
2020/05/06 08:09:45;;;;;;;2.4;1.2;;;;;;;9.67;51.05176;964.6641;;;;
2020/05/06 08:12:10;;;;;;;2;1.2;;;;;;;9.81;50.20605;964.6763;;;;
2020/05/06 08:14:37;;;;;;;2;1.3;;;;;;;9.74;50.8877;964.6605;;;;
2020/05/06 08:17:02;;;;;;;2.8;1.3;;;;;;;9.66;50.82031;964.6497;;;;
2020/05/06 08:19:28;;;;;;;2.2;1;;;;;;;9.61;50.44727;964.6525;;;;
2020/05/06 08:21:53;;;;;;;1.8;1;;;;;;;9.59;49.6416;964.69;;;;
2020/05/06 08:25:46;;;;;;;1.8;1.1;;;;;;;9.79;48.00977;964.6848;;;;
2020/05/06 08:28:11;;;;;;;2.4;1;;;;;;;9.9;49.6875;964.7465;;;;
2020/05/06 08:30:36;;;;;;;2.7;1.6;;;;;;;9.92;49.62109;964.7521;;;;
2020/05/06 08:33:01;;;;;;;2.3;1.3;;;;;;;9.93;48.76074;964.7083;;;;
2020/05/06 08:35:26;;;;;;;2.5;1.7;;;;;;;9.82;49.39258;964.6972;;;;
2020/05/06 08:37:51;;;;;;;2.4;1.7;;;;;;;10.02;49.42676;964.7113;;;;
2020/05/06 08:40:16;;;;;;;1.9;1.2;;;;;;;9.85;48.84375;964.6842;;;;
2020/05/06 08:42:42;;;;;;;2;1.2;;;;;;;9.86;48.97168;964.7087;;;;
2020/05/06 08:45:07;;;;;;;1.6;1.3;;;;;;;10.03;48.1748;964.6423;;;;
2020/05/06 08:47:32;;;;;;;1.8;1.1;;;;;;;10.09;47.58301;964.6505;;;;
2020/05/06 08:49:57;;;;;;;2.7;1.5;;;;;;;10.28;47.74219;964.6742;;;;
2020/05/06 08:52:22;;;;;;;3.3;2.2;;;;;;;10.38;46.86719;964.6951;;;;
2020/05/06 08:54:47;;;;;;;1.7;1.3;;;;;;;10.33;46.52832;964.6284;;;;
2020/05/06 08:57:12;;;;;;;2.1;1.3;;;;;;;10.36;47.24512;964.6676;;;;
2020/05/06 08:59:37;;;;;;;3.4;1.9;;;;;;;10.37;48.05273;964.6091;;;;
2020/05/06 09:02:02;;;;;;;2.8;1.4;;;;;;;10.54;47.9209;964.6066;;;;
2020/05/06 09:04:27;;;;;;;2.2;1.3;;;;;;;10.51;47.14551;964.6236;;;;
2020/05/06 09:06:55;;;;;;;2;1.2;;;;;;;10.4;47.50195;964.6326;;;;
2020/05/06 09:09:20;;;;;;;2.5;1.6;;;;;;;10.45;46.8291;964.6423;;;;
2020/05/06 09:14:11;;;;;;;3.1;1.3;;;;;;;10.4;48.40039;964.588;;;;
2020/05/06 09:16:43;;;;;;;2.5;1.8;;;;;;;10.53;48.58594;964.6385;;;;
2020/05/06 09:19:12;;;;;;;1.8;1.3;;;;;;;10.64;48.56445;964.5594;;;;
2020/05/06 09:21:34;;;;;;;2;1.5;;;;;;;10.58;48.4209;964.5432;;;;
2020/05/06 09:23:56;;;;;;;3.1;1.6;;;;;;;10.81;48.68652;964.6364;;;;
2020/05/06 09:26:27;;;;;;;2.4;1.5;;;;;;;10.85;48.84277;964.5992;;;;
2020/05/06 09:28:42;;;;;;;2.9;1.6;;;;;;;10.86;49.46484;964.6315;;;;
2020/05/06 09:31:07;;;;;;;2.6;1.4;;;;;;;10.82;48.23926;964.5739;;;;
2020/05/06 09:33:34;;;;;;;2.8;1.4;;;;;;;10.73;48.63379;964.6083;;;;
2020/05/06 09:35:59;;;;;;;2.7;1.8;;;;;;;10.8;46.59082;964.5386;;;;
2020/05/06 09:38:24;;;;;;;3.4;1.6;;;;;;;10.89;48.94922;964.5592;;;;
2020/05/06 09:40:50;;;;;;;1.6;1.2;;;;;;;10.99;46.10352;964.6036;;;;
2020/05/06 09:43:17;;;;;;;1.8;1.3;;;;;;;11.12;47.13281;964.5474;;;;
2020/05/06 09:45:42;;;;;;;3;1.6;;;;;;;11;48.37598;964.6609;;;;
2020/05/06 09:48:09;;;;;;;3.4;1.4;;;;;;;11.03;47.2959;964.6006;;;;
2020/05/06 09:50:34;;;;;;;3.4;1.4;;;;;;;10.94;47.53906;964.613;;;;
2020/05/06 09:52:59;;;;;;;2.7;1.6;;;;;;;11.05;45.87988;964.6142;;;;
2020/05/06 09:55:25;;;;;;;2.3;1.6;;;;;;;11.12;46.30176;964.5758;;;;
2020/05/06 09:57:52;;;;;;;2.1;1.4;;;;;;;11.31;48.69824;964.593;;;;
2020/05/06 10:00:17;;;;;;;2.4;1.7;;;;;;;11.24;46.28027;964.56;;;;
2020/05/06 10:02:46;;;;;;;3.6;1.5;;;;;;;11.38;47.47168;964.5831;;;;
2020/05/06 10:05:11;;;;;;;2.9;1.6;;;;;;;11.23;47.49023;964.5208;;;;
2020/05/06 10:07:37;;;;;;;2.9;1.4;;;;;;;11.05;46.43359;964.5;;;;
2020/05/06 10:10:02;;;;;;;2;1.5;;;;;;;11.18;48.85547;964.4998;;;;
2020/05/06 10:12:28;;;;;;;2;1.4;;;;;;;11.25;47.73438;964.5907;;;;
2020/05/06 10:14:53;;;;;;;2.3;1.6;;;;;;;11.16;45.38477;964.4906;;;;
2020/05/06 10:17:18;;;;;;;2;1.5;;;;;;;11.36;47.45898;964.5287;;;;
2020/05/06 10:19:44;;;;;;;1.8;1.4;;;;;;;11.63;44.6377;964.5595;;;;
2020/05/06 10:22:12;;;;;;;2.6;1.5;;;;;;;11.25;45.79785;964.5458;;;;
2020/05/06 10:24:37;;;;;;;2.8;1.3;;;;;;;11.39;45.16602;964.5277;;;;
2020/05/06 10:27:02;;;;;;;2;1.4;;;;;;;11.48;44.93262;964.3805;;;;
2020/05/06 10:29:28;;;;;;;1.8;1.2;;;;;;;11.36;43.90723;964.4161;;;;
2020/05/06 10:31:53;;;;;;;3.5;1.6;;;;;;;11.68;45.62402;964.4138;;;;
2020/05/06 10:34:19;;;;;;;2.4;1.2;;;;;;;11.97;42.90625;964.4034;;;;
2020/05/06 10:36:46;;;;;;;2.3;1.2;;;;;;;12.01;41.24707;964.3903;;;;
2020/05/06 10:39:11;;;;;;;1.2;1;;;;;;;11.88;39.42285;964.4375;;;;
2020/05/06 10:41:36;;;;;;;1.8;1.1;;;;;;;11.92;41.73535;964.4186;;;;
2020/05/06 10:44:01;;;;;;;1.2;0.9;;;;;;;11.81;40.69727;964.3373;;;;
2020/05/06 10:46:26;;;;;;;1.1;0.9;;;;;;;11.89;39.48047;964.2996;;;;
2020/05/06 10:48:51;;;;;;;2;1.2;;;;;;;11.84;41.01172;964.3119;;;;
2020/05/06 10:51:21;;;;;;;2.1;1.4;;;;;;;12.04;38.75586;964.3469;;;;
2020/05/06 10:53:49;;;;;;;1.1;0.9;;;;;;;12.07;38.72363;964.3351;;;;
2020/05/06 10:56:14;;;;;;;1.7;1.2;;;;;;;12.22;41.99609;964.3064;;;;
2020/05/06 10:58:39;;;;;;;1.7;1.1;;;;;;;12.24;43.38379;964.3258;;;;
2020/05/06 11:01:04;;;;;;;1.7;1.4;;;;;;;12.05;40.07324;964.3084;;;;
2020/05/06 11:03:29;;;;;;;2.4;1.1;;;;;;;11.86;40.17188;964.2957;;;;
2020/05/06 11:05:57;;;;;;;1.6;1.2;;;;;;;12.22;40.30859;964.3236;;;;
2020/05/06 11:08:22;;;;;;;1.9;1.5;;;;;;;11.98;41.34863;964.3228;;;;
2020/05/06 11:10:50;;;;;;;5.1;1.8;;;;;;;12.05;39.3916;964.3232;;;;
2020/05/06 11:13:15;;;;;;;1.6;1.2;;;;;;;12.11;41.52246;964.3245;;;;
2020/05/06 11:15:40;;;;;;;1.7;1.3;;;;;;;12.06;39.75;964.3423;;;;
2020/05/06 11:18:06;;;;;;;2.7;1.4;;;;;;;11.49;40.79395;964.2765;;;;
2020/05/06 11:20:31;;;;;;;1.8;1.3;;;;;;;11.92;41.88574;964.3052;;;;
2020/05/06 11:22:56;;;;;;;2;1.5;;;;;;;12.22;41.76465;964.3081;;;;
2020/05/06 11:25:21;;;;;;;1.7;1.5;;;;;;;12.25;41.95117;964.3005;;;;
2020/05/06 11:27:46;;;;;;;1.9;1.4;;;;;;;12.45;41.80957;964.3159;;;;
2020/05/06 11:30:11;;;;;;;2.4;1.4;;;;;;;12.56;40.21289;964.3423;;;;
2020/05/06 11:32:36;;;;;;;2.2;1.3;;;;;;;12.6;40.99023;964.3188;;;;
2020/05/06 11:35:02;;;;;;;2.9;1.8;;;;;;;12.46;40.41113;964.294;;;;
2020/05/06 11:37:27;;;;;;;2.5;1.3;;;;;;;12.88;41.42285;964.3002;;;;
2020/05/06 11:39:52;;;;;;;2;1.5;;;;;;;12.94;40.12012;964.2234;;;;
2020/05/06 11:42:17;;;;;;;2.3;1.4;;;;;;;13;40.66992;964.2491;;;;
2020/05/06 11:44:42;;;;;;;1.5;1.1;;;;;;;13.02;41.29688;964.2921;;;;
2020/05/06 11:47:07;;;;;;;2.1;1.2;;;;;;;13.13;40.09277;964.1566;;;;
2020/05/06 11:49:33;;;;;;;1.7;1.2;;;;;;;13.22;40.27344;964.176;;;;
2020/05/06 11:51:58;;;;;;;3.1;1.2;;;;;;;13.12;40.93652;964.1422;;;;
2020/05/06 11:54:34;;;;;;;2.3;1.3;;;;;;;13.33;39.47266;964.1688;;;;
2020/05/06 11:56:48;;;;;;;1.6;1.4;;;;;;;13.3;37.94141;964.1071;;;;
2020/05/06 11:59:13;;;;;;;1.8;1.3;;;;;;;12.93;39.04395;964.1686;;;;
2020/05/06 12:01:38;;;;;;;1.7;1.2;;;;;;;13.23;39.42969;964.2112;;;;
2020/05/06 12:04:03;;;;;;;2;1.3;;;;;;;12.9;39.99023;964.1435;;;;
2020/05/06 12:06:28;;;;;;;1.6;1.2;;;;;;;13.05;38.76465;964.1534;;;;
2020/05/06 12:08:54;;;;;;;1.9;1.4;;;;;;;13.51;40.72949;964.1404;;;;
2020/05/06 12:11:19;;;;;;;2.2;1.2;;;;;;;13.82;39.01953;964.0903;;;;
2020/05/06 12:13:44;;;;;;;1.9;1.2;;;;;;;13.72;38.40723;964.1378;;;;
2020/05/06 12:16:09;;;;;;;1.8;1.2;;;;;;;13.95;41.01367;964.1509;;;;
2020/05/06 12:18:34;;;;;;;3.1;1.4;;;;;;;14.04;39.32813;964.0914;;;;
2020/05/06 12:20:59;;;;;;;1.6;1.3;;;;;;;14.26;42.18066;964.1113;;;;
2020/05/06 12:23:24;;;;;;;1.2;1.1;;;;;;;14.37;37.7793;964.1545;;;;
2020/05/06 12:25:53;;;;;;;1.9;1.3;;;;;;;14.38;38.02441;964.1225;;;;
2020/05/06 12:28:24;;;;;;;2.2;1.2;;;;;;;14.66;37.17773;964.1663;;;;
2020/05/06 12:30:40;;;;;;;1.5;1.4;;;;;;;14.66;36.9209;964.1089;;;;
2020/05/06 12:33:05;;;;;;;1.6;1.3;;;;;;;14.63;37.66211;964.1487;;;;
2020/05/06 12:35:32;;;;;;;2.3;1.2;;;;;;;14.23;36.97852;964.0765;;;;
2020/05/06 12:37:57;;;;;;;1.5;1.2;;;;;;;14.9;37.59375;963.9915;;;;
2020/05/06 12:40:23;;;;;;;2.3;1.3;;;;;;;15.21;37.46875;963.9883;;;;
2020/05/06 12:42:49;;;;;;;2.4;1.3;;;;;;;14.99;37.57813;964.003;;;;
2020/05/06 12:45:26;;;;;;;2;1.2;;;;;;;15.09;35.96973;963.9619;;;;
2020/05/06 12:50:14;;;;;;;2.2;1.4;;;;;;;13.96;37.47754;964.0387;;;;
2020/05/06 12:52:34;;;;;;;2.1;1.5;;;;;;;14.15;37.04102;963.9763;;;;
2020/05/06 12:54:59;;;;;;;4.3;1.8;;;;;;;14.6;37.59082;963.9336;;;;
2020/05/06 12:57:25;;;;;;;2.2;1.3;;;;;;;14.73;36.5791;964.0266;;;;
2020/05/06 12:59:50;;;;;;;2.2;1.9;;;;;;;14.83;36.63379;963.9684;;;;
2020/05/06 13:02:18;;;;;;;2.3;1.8;;;;;;;15.01;36.97461;963.9684;;;;
2020/05/06 13:04:43;;;;;;;2.4;1.6;;;;;;;14.54;37.0752;964.0215;;;;
2020/05/06 13:07:10;;;;;;;2.7;1.5;;;;;;;14.44;37.71582;963.9698;;;;
2020/05/06 13:09:35;;;;;;;1.6;1.3;;;;;;;14.8;38.12988;963.9288;;;;
2020/05/06 13:12:02;;;;;;;2.1;1.4;;;;;;;15.24;38.09961;963.8481;;;;
2020/05/06 13:14:27;;;;;;;3;1.6;;;;;;;15.23;37.35352;963.8022;;;;
2020/05/06 13:16:54;;;;;;;3.2;1.4;;;;;;;15.13;38.16992;963.8102;;;;
2020/05/06 13:19:19;;;;;;;3.5;1.3;;;;;;;14.95;37.03906;963.8038;;;;
2020/05/06 13:21:46;;;;;;;1.5;1.4;;;;;;;15.3;37.88281;963.7961;;;;
2020/05/06 13:24:11;;;;;;;3.2;1.5;;;;;;;15.15;37.71973;963.7834;;;;
2020/05/06 13:26:38;;;;;;;3.1;1.5;;;;;;;15.11;38.64551;963.7495;;;;
2020/05/06 13:29:03;;;;;;;3.6;1.5;;;;;;;15.17;37.54688;963.8289;;;;
2020/05/06 13:31:30;;;;;;;3.3;1.6;;;;;;;14.99;37.54297;963.8405;;;;
2020/05/06 13:33:55;;;;;;;2;1.7;;;;;;;15.25;38.70508;963.7899;;;;
2020/05/06 13:36:22;;;;;;;2.3;1.8;;;;;;;15.18;37.26855;963.7779;;;;
2020/05/06 13:38:48;;;;;;;2.5;1.7;;;;;;;15.12;36.72754;963.7183;;;;
2020/05/06 13:41:13;;;;;;;2.1;1.5;;;;;;;15.49;37.70215;963.7809;;;;
2020/05/06 13:43:38;;;;;;;4.1;1.5;;;;;;;15.5;37.07422;963.7335;;;;
2020/05/06 13:46:03;;;;;;;2.5;1.5;;;;;;;15.71;37.88379;963.736;;;;
2020/05/06 13:48:30;;;;;;;2.4;1.6;;;;;;;15.24;37.0752;963.7628;;;;
2020/05/06 13:50:59;;;;;;;2.3;1.7;;;;;;;14.88;36.90625;963.7696;;;;
2020/05/06 13:53:25;;;;;;;1.8;1.6;;;;;;;15.39;37.44922;963.7097;;;;
2020/05/06 13:55:50;;;;;;;2.6;1.6;;;;;;;15.2;36.72266;963.7191;;;;
2020/05/06 13:58:15;;;;;;;1.9;1.6;;;;;;;15.29;36.55566;963.7468;;;;
2020/05/06 14:00:40;;;;;;;2.3;1.6;;;;;;;15.02;36.7666;963.6897;;;;
2020/05/06 14:03:05;;;;;;;1.8;1.5;;;;;;;15.04;37.59375;963.7291;;;;
2020/05/06 14:05:30;;;;;;;1.9;1.6;;;;;;;15.19;36.66406;963.6973;;;;
2020/05/06 14:07:55;;;;;;;3.6;1.6;;;;;;;15.15;36.84766;963.6537;;;;
2020/05/06 14:10:20;;;;;;;1.7;1.6;;;;;;;15.45;36.19629;963.6904;;;;
2020/05/06 14:12:45;;;;;;;2.9;1.5;;;;;;;15.25;36.34375;963.6995;;;;
2020/05/06 14:15:10;;;;;;;3.1;1.5;;;;;;;15.29;35.52051;963.6713;;;;
2020/05/06 14:17:36;;;;;;;2.6;1.9;;;;;;;15.63;35.14063;963.7317;;;;
2020/05/06 14:20:01;;;;;;;1.8;1.4;;;;;;;15.77;34.91895;963.7535;;;;
2020/05/06 14:22:26;;;;;;;2.4;1.4;;;;;;;15.76;36.19922;963.6998;;;;
2020/05/06 14:24:51;;;;;;;2.3;1.5;;;;;;;15.69;36.13574;963.6584;;;;
2020/05/06 14:27:16;;;;;;;2.5;1.5;;;;;;;15.88;35.65039;963.6528;;;;
2020/05/06 14:29:41;;;;;;;1.9;1.3;;;;;;;15.9;36.16406;963.6489;;;;
2020/05/06 14:32:06;;;;;;;1.4;1.3;;;;;;;16.31;35.77832;963.7576;;;;
2020/05/06 14:34:31;;;;;;;2.8;1.4;;;;;;;16.28;36.125;963.7361;;;;
2020/05/06 14:36:56;;;;;;;1.7;1.4;;;;;;;15.99;33.94629;963.748;;;;
2020/05/06 14:39:21;;;;;;;3.1;1.9;;;;;;;16.58;33.4082;963.7683;;;;
2020/05/06 14:41:46;;;;;;;2;1.5;;;;;;;16.83;35.72754;963.8208;;;;
2020/05/06 14:44:12;;;;;;;2.4;1.6;;;;;;;16.77;33.80762;963.7581;;;;
2020/05/06 14:46:37;;;;;;;3.3;1.7;;;;;;;17.29;32.78516;963.8047;;;;
2020/05/06 14:49:02;;;;;;;2.3;1.7;;;;;;;17.57;31.39063;963.7946;;;;
2020/05/06 14:51:27;;;;;;;4.4;1.8;;;;;;;17.57;31.40234;963.7813;;;;
2020/05/06 14:53:52;;;;;;;3;1.6;;;;;;;17.15;32.54102;963.7388;;;;
2020/05/06 14:56:19;;;;;;;1.9;1.6;;;;;;;17.66;33.02246;963.7664;;;;
2020/05/06 14:58:44;;;;;;;2.2;1.5;;;;;;;17.36;33.38574;963.7133;;;;
2020/05/06 15:01:11;;;;;;;3.1;1.9;;;;;;;17.65;33.53711;963.7739;;;;
2020/05/06 15:03:36;;;;;;;1.9;1.5;;;;;;;16.38;34.6416;963.7281;;;;
2020/05/06 15:06:03;;;;;;;2.4;1.8;;;;;;;16.74;34.1084;963.7191;;;;
2020/05/06 15:08:28;;;;;;;3.2;1.5;;;;;;;16.99;32.7041;963.7188;;;;
2020/05/06 15:10:54;;;;;;;2.8;1.7;;;;;;;16.82;32.13086;963.7938;;;;
2020/05/06 15:13:19;;;;;;;3.5;1.7;;;;;;;16.95;33.0625;963.8506;;;;
2020/05/06 15:15:45;;;;;;;3.2;1.9;;;;;;;17.13;31.67383;963.8186;;;;
2020/05/06 15:18:12;;;;;;;2.5;1.7;;;;;;;16.54;33.61523;963.8826;;;;
2020/05/06 15:20:37;;;;;;;2.7;2.1;;;;;;;16.18;34.68359;963.8145;;;;